createdAt,value
2023-05-17T00:00:06.365Z,4.30
2023-05-17T00:01:07.859Z,4.31
2023-05-17T00:02:09.380Z,4.30
2023-05-17T00:03:10.921Z,4.31
2023-05-17T00:04:12.462Z,4.29
2023-05-17T00:05:14.011Z,4.33
2023-05-17T00:06:15.540Z,4.30
2023-05-17T00:07:17.051Z,4.29
2023-05-17T00:08:18.538Z,4.28
2023-05-17T00:09:20.035Z,4.25
2023-05-17T00:10:21.578Z,4.24
2023-05-17T00:11:23.076Z,4.23
2023-05-17T00:12:24.571Z,4.20
2023-05-17T00:13:26.094Z,4.19
2023-05-17T00:14:27.565Z,4.17
2023-05-17T00:15:29.224Z,4.16
2023-05-17T00:16:30.850Z,4.13
2023-05-17T00:17:32.433Z,4.12
2023-05-17T00:18:34.116Z,4.12
2023-05-17T00:19:35.773Z,4.09
2023-05-17T00:20:37.587Z,4.09
2023-05-17T00:21:39.209Z,4.09
2023-05-17T00:22:41.010Z,4.07
2023-05-17T00:23:42.563Z,4.05
2023-05-17T00:24:44.020Z,4.04
2023-05-17T00:25:45.522Z,4.03
2023-05-17T00:26:47.045Z,4.03
2023-05-17T00:27:48.569Z,4.01
2023-05-17T00:28:50.124Z,4.02
2023-05-17T00:29:51.644Z,4.02
2023-05-17T00:30:53.164Z,4.02
2023-05-17T00:31:54.654Z,4.02
2023-05-17T00:32:56.176Z,4.03
2023-05-17T00:33:57.710Z,4.01
2023-05-17T00:34:59.246Z,4.00
2023-05-17T00:36:00.789Z,3.99
2023-05-17T00:37:02.276Z,3.98
2023-05-17T00:38:03.784Z,3.98
2023-05-17T00:39:05.280Z,3.99
2023-05-17T00:40:06.783Z,3.97
2023-05-17T00:41:08.280Z,3.98
2023-05-17T00:42:09.873Z,3.97
2023-05-17T00:43:11.349Z,3.98
2023-05-17T00:44:12.840Z,3.99
2023-05-17T00:45:14.349Z,3.97
2023-05-17T00:46:15.868Z,3.97
2023-05-17T00:47:17.383Z,3.96
2023-05-17T00:48:19.011Z,3.95
2023-05-17T00:49:20.563Z,3.95
2023-05-17T00:50:22.090Z,3.93
2023-05-17T00:51:23.621Z,3.91
2023-05-17T00:52:25.149Z,3.91
2023-05-17T00:53:26.697Z,3.90
2023-05-17T00:54:28.217Z,3.90
2023-05-17T00:55:29.935Z,3.89
2023-05-17T00:56:31.653Z,3.89
2023-05-17T00:57:33.187Z,3.87
2023-05-17T00:58:34.710Z,3.87
2023-05-17T00:59:36.191Z,3.87
2023-05-17T01:00:37.722Z,3.88
2023-05-17T01:01:39.255Z,3.86
2023-05-17T01:02:40.836Z,3.86
2023-05-17T01:03:42.499Z,3.86
2023-05-17T01:04:44.153Z,3.87
2023-05-17T01:05:45.733Z,3.87
2023-05-17T01:06:47.237Z,3.87
2023-05-17T01:07:48.699Z,3.86
2023-05-17T01:08:50.174Z,3.87
2023-05-17T01:09:51.671Z,3.86
2023-05-17T01:10:53.142Z,3.88
2023-05-17T01:11:54.667Z,3.86
2023-05-17T01:12:56.174Z,3.86
2023-05-17T01:13:57.714Z,3.86
2023-05-17T01:14:59.294Z,3.85
2023-05-17T01:16:00.806Z,3.85
2023-05-17T01:17:02.329Z,3.84
2023-05-17T01:18:03.995Z,3.84
2023-05-17T01:19:05.668Z,3.83
2023-05-17T01:20:07.603Z,3.82
2023-05-17T01:21:09.269Z,3.83
2023-05-17T01:22:10.765Z,3.82
2023-05-17T01:23:12.269Z,3.81
2023-05-17T01:24:13.825Z,3.81
2023-05-17T01:25:15.346Z,3.78
2023-05-17T01:26:16.846Z,3.78
2023-05-17T01:27:18.336Z,3.77
2023-05-17T01:28:19.807Z,3.77
2023-05-17T01:29:21.284Z,3.77
2023-05-17T01:30:22.794Z,3.77
2023-05-17T01:31:24.272Z,3.75
2023-05-17T01:32:25.845Z,3.75
2023-05-17T01:33:27.461Z,3.76
2023-05-17T01:34:29.039Z,3.75
2023-05-17T01:35:30.737Z,3.74
2023-05-17T01:36:32.474Z,3.71
2023-05-17T01:37:34.000Z,3.70
2023-05-17T01:38:35.504Z,3.70
2023-05-17T01:39:36.977Z,3.69
2023-05-17T01:40:38.435Z,3.69
2023-05-17T01:41:39.961Z,3.68
2023-05-17T01:42:41.477Z,3.66
2023-05-17T01:43:42.977Z,3.67
2023-05-17T01:44:44.483Z,3.65
2023-05-17T01:45:46.004Z,3.64
2023-05-17T01:46:47.509Z,3.62
2023-05-17T02:17:24.265Z,3.22
2023-05-17T02:18:26.018Z,3.20
2023-05-17T02:19:27.685Z,3.18
2023-05-17T02:20:29.284Z,3.18
2023-05-17T02:21:30.858Z,3.16
2023-05-17T02:22:32.415Z,3.14
2023-05-17T02:23:33.988Z,3.13
2023-05-17T02:24:35.557Z,3.11
2023-05-17T02:25:37.169Z,3.10
2023-05-17T02:26:38.730Z,3.10
2023-05-17T02:27:40.296Z,3.09
2023-05-17T02:28:41.853Z,3.09
2023-05-17T02:29:43.440Z,3.10
2023-05-17T02:30:45.077Z,3.08
2023-05-17T02:31:46.641Z,3.07
2023-05-17T02:32:48.259Z,3.07
2023-05-17T02:33:49.947Z,3.07
2023-05-17T02:34:51.556Z,3.04
2023-05-17T02:35:53.151Z,3.04
2023-05-17T02:36:54.719Z,3.02
2023-05-17T02:37:56.261Z,3.01
2023-05-17T02:38:57.853Z,2.99
2023-05-17T02:39:59.463Z,2.97
2023-05-17T02:41:01.044Z,2.96
2023-05-17T02:42:02.623Z,2.96
2023-05-17T02:43:04.253Z,2.94
2023-05-17T02:44:05.828Z,2.93
2023-05-17T02:45:07.413Z,2.92
2023-05-17T02:46:09.020Z,2.92
2023-05-17T02:47:10.713Z,2.91
2023-05-17T02:48:12.929Z,2.89
2023-05-17T02:49:14.517Z,2.89
2023-05-17T02:50:16.103Z,2.85
2023-05-17T02:51:17.710Z,2.87
2023-05-17T02:52:19.286Z,2.87
2023-05-17T02:53:20.911Z,2.87
2023-05-17T02:54:22.540Z,2.87
2023-05-17T02:55:24.109Z,2.86
2023-05-17T02:56:25.698Z,2.86
2023-05-17T02:57:27.239Z,2.86
2023-05-17T02:58:28.821Z,2.86
2023-05-17T02:59:30.384Z,2.85
2023-05-17T03:00:31.993Z,2.86
2023-05-17T03:01:33.613Z,2.86
2023-05-17T03:02:35.257Z,2.84
2023-05-17T03:03:37.007Z,2.84
2023-05-17T03:04:38.832Z,2.83
2023-05-17T03:05:40.411Z,2.83
2023-05-17T03:06:42.003Z,2.82
2023-05-17T03:07:43.556Z,2.82
2023-05-17T03:08:45.163Z,2.80
2023-05-17T03:09:46.762Z,2.77
2023-05-17T03:10:48.378Z,2.77
2023-05-17T03:11:49.993Z,2.76
2023-05-17T03:12:51.577Z,2.75
2023-05-17T03:13:53.140Z,2.76
2023-05-17T03:14:54.712Z,2.73
2023-05-17T03:15:56.299Z,2.70
2023-05-17T03:16:57.990Z,2.68
2023-05-17T03:17:59.648Z,2.67
2023-05-17T03:19:01.541Z,2.65
2023-05-17T03:20:03.353Z,2.64
2023-05-17T03:21:04.911Z,2.62
2023-05-17T03:22:06.507Z,2.60
2023-05-17T03:23:08.075Z,2.59
2023-05-17T03:24:09.650Z,2.57
2023-05-17T03:25:11.237Z,2.53
2023-05-17T03:26:12.781Z,2.53
2023-05-17T03:27:14.488Z,2.50
2023-05-17T03:28:16.143Z,2.48
2023-05-17T03:29:17.727Z,2.47
2023-05-17T03:30:19.347Z,2.46
2023-05-17T03:31:20.955Z,2.44
2023-05-17T03:32:22.559Z,2.43
2023-05-17T03:33:24.212Z,2.42
2023-05-17T03:34:25.825Z,2.40
2023-05-17T03:35:27.681Z,2.39
2023-05-17T03:36:29.492Z,2.38
2023-05-17T03:37:31.119Z,2.36
2023-05-17T03:38:32.678Z,2.36
2023-05-17T03:39:34.253Z,2.32
2023-05-17T03:40:35.812Z,2.34
2023-05-17T03:41:37.373Z,2.32
2023-05-17T03:42:38.965Z,2.31
2023-05-17T03:43:40.532Z,2.31
2023-05-17T03:44:42.080Z,2.29
2023-05-17T03:45:43.650Z,2.30
2023-05-17T03:46:45.235Z,2.29
2023-05-17T03:47:46.892Z,2.28
2023-05-17T03:48:48.596Z,2.28
2023-05-17T03:49:50.223Z,2.27
2023-05-17T03:50:51.855Z,2.27
2023-05-17T03:51:53.448Z,2.26
2023-05-17T03:52:55.045Z,2.24
2023-05-17T03:53:56.799Z,2.23
2023-05-17T03:54:58.377Z,2.23
2023-05-17T03:55:59.935Z,2.23
2023-05-17T03:57:01.480Z,2.23
2023-05-17T03:58:03.093Z,2.22
2023-05-17T03:59:04.657Z,2.21
2023-05-17T04:00:06.212Z,2.20
2023-05-17T04:01:07.775Z,2.19
2023-05-17T04:02:09.346Z,2.20
2023-05-17T04:03:11.034Z,2.19
2023-05-17T04:04:12.615Z,2.18
2023-05-17T04:05:14.240Z,2.17
2023-05-17T04:06:15.829Z,2.14
2023-05-17T04:07:17.410Z,2.11
2023-05-17T04:08:19.070Z,2.11
2023-05-17T04:09:20.684Z,2.10
2023-05-17T04:10:22.331Z,2.10
2023-05-17T04:11:23.904Z,2.09
2023-05-17T04:12:25.465Z,2.05
2023-05-17T04:13:27.057Z,2.06
2023-05-17T04:14:28.606Z,2.06
2023-05-17T04:15:30.345Z,2.05
2023-05-17T04:16:32.163Z,2.06
2023-05-17T04:17:33.758Z,2.06
2023-05-17T04:18:35.455Z,2.07
2023-05-17T04:19:37.087Z,2.05
2023-05-17T04:20:38.700Z,2.07
2023-05-17T04:21:40.313Z,2.06
2023-05-17T04:22:41.921Z,2.05
2023-05-17T04:23:43.495Z,2.03
2023-05-17T04:24:45.082Z,2.04
2023-05-17T04:25:46.681Z,2.02
2023-05-17T04:26:48.283Z,2.03
2023-05-17T04:27:49.864Z,2.01
2023-05-17T04:28:51.448Z,2.01
2023-05-17T04:29:53.003Z,2.01
2023-05-17T04:30:54.596Z,2.02
2023-05-17T04:31:56.196Z,2.01
2023-05-17T04:32:59.159Z,2.01
2023-05-17T04:34:00.855Z,2.02
2023-05-17T04:35:02.462Z,2.02
2023-05-17T04:36:04.053Z,2.01
2023-05-17T04:37:05.658Z,2.02
2023-05-17T04:38:07.225Z,2.00
2023-05-17T04:39:08.795Z,2.00
2023-05-17T04:40:10.366Z,2.01
2023-05-17T04:41:11.927Z,2.00
2023-05-17T04:42:13.546Z,2.00
2023-05-17T04:43:15.099Z,2.01
2023-05-17T04:44:16.648Z,2.02
2023-05-17T04:45:18.197Z,2.01
2023-05-17T04:46:19.764Z,2.02
2023-05-17T04:47:21.395Z,2.03
2023-05-17T04:48:23.127Z,2.02
2023-05-17T04:49:24.781Z,2.03
2023-05-17T04:50:26.352Z,2.02
2023-05-17T04:51:27.937Z,2.03
2023-05-17T04:52:29.560Z,2.03
2023-05-17T04:53:31.218Z,2.02
2023-05-17T04:54:32.787Z,2.01
2023-05-17T04:55:34.350Z,2.01
2023-05-17T04:56:35.907Z,2.01
2023-05-17T04:57:37.610Z,2.00
2023-05-17T04:58:39.184Z,1.99
2023-05-17T04:59:40.730Z,2.00
2023-05-17T05:00:42.290Z,2.00
2023-05-17T05:01:43.893Z,2.00
2023-05-17T05:02:45.605Z,2.00
2023-05-17T05:03:47.224Z,2.01
2023-05-17T05:04:48.871Z,2.01
2023-05-17T05:05:50.454Z,2.03
2023-05-17T05:06:52.020Z,2.03
2023-05-17T05:07:53.650Z,2.04
2023-05-17T05:08:55.247Z,2.04
2023-05-17T05:09:56.814Z,2.05
2023-05-17T05:10:58.403Z,2.04
2023-05-17T05:11:59.998Z,2.04
2023-05-17T05:13:01.604Z,2.04
2023-05-17T05:14:03.168Z,2.05
2023-05-17T05:15:04.725Z,2.06
2023-05-17T05:16:06.312Z,2.07
2023-05-17T05:17:07.874Z,2.07
2023-05-17T05:18:09.641Z,2.06
2023-05-17T05:19:11.383Z,2.07
2023-05-17T05:20:13.154Z,2.09
2023-05-17T05:21:14.739Z,2.10
2023-05-17T05:22:16.304Z,2.11
2023-05-17T05:23:17.916Z,2.11
2023-05-17T05:24:19.485Z,2.12
2023-05-17T05:25:21.070Z,2.13
2023-05-17T05:26:22.674Z,2.16
2023-05-17T05:27:24.298Z,2.18
2023-05-17T05:28:25.925Z,2.18
2023-05-17T05:29:27.483Z,2.20
2023-05-17T05:30:29.054Z,2.21
2023-05-17T05:31:30.639Z,2.23
2023-05-17T05:32:32.280Z,2.24
2023-05-17T05:33:34.142Z,2.24
2023-05-17T05:34:38.234Z,2.27
2023-05-17T05:35:39.810Z,2.29
2023-05-17T05:36:41.379Z,2.29
2023-05-17T05:37:42.943Z,2.31
2023-05-17T05:38:44.550Z,2.30
2023-05-17T05:39:46.115Z,2.32
2023-05-17T05:40:47.695Z,2.33
2023-05-17T05:41:49.262Z,2.36
2023-05-17T05:42:50.830Z,2.36
2023-05-17T05:43:52.961Z,2.38
2023-05-17T05:44:54.522Z,2.39
2023-05-17T05:45:56.083Z,2.41
2023-05-17T05:46:57.668Z,2.42
2023-05-17T05:47:59.295Z,2.44
2023-05-17T05:49:01.056Z,2.45
2023-05-17T05:50:02.749Z,2.48
2023-05-17T05:51:04.349Z,2.51
2023-05-17T05:52:05.922Z,2.53
2023-05-17T05:53:18.276Z,2.58
2023-05-17T05:54:21.310Z,2.64
2023-05-17T05:55:22.900Z,2.66
2023-05-17T05:56:27.349Z,2.70
2023-05-17T05:57:28.916Z,2.74
2023-05-17T05:58:30.486Z,2.79
2023-05-17T05:59:32.101Z,2.83
2023-05-17T06:00:33.651Z,2.88
2023-05-17T06:01:35.215Z,2.91
2023-05-17T06:02:36.797Z,2.95
2023-05-17T06:03:38.453Z,3.00
2023-05-17T06:04:45.326Z,3.04
2023-05-17T06:05:47.649Z,3.11
2023-05-17T06:06:49.433Z,3.15
2023-05-17T06:07:51.137Z,3.20
2023-05-17T06:08:52.770Z,3.25
2023-05-17T06:09:54.360Z,3.31
2023-05-17T06:10:55.946Z,3.36
2023-05-17T06:11:57.532Z,3.42
2023-05-17T06:12:59.104Z,3.48
2023-05-17T06:14:00.698Z,3.55
2023-05-17T06:15:02.338Z,3.61
2023-05-17T06:16:03.914Z,3.67
2023-05-17T06:17:05.488Z,3.73
2023-05-17T06:18:07.253Z,3.79
2023-05-17T06:19:09.088Z,3.86
2023-05-17T06:20:10.696Z,3.94
2023-05-17T06:21:12.302Z,3.99
2023-05-17T06:22:13.888Z,4.03
2023-05-17T06:23:15.482Z,4.08
2023-05-17T06:24:17.103Z,4.15
2023-05-17T06:25:18.676Z,4.21
2023-05-17T06:26:20.327Z,4.27
2023-05-17T06:27:21.931Z,4.33
2023-05-17T06:28:23.498Z,4.40
2023-05-17T06:29:25.096Z,4.48
2023-05-17T06:30:26.710Z,4.55
2023-05-17T06:31:28.530Z,4.62
2023-05-17T06:32:30.135Z,4.68
2023-05-17T06:33:31.820Z,4.76
2023-05-17T06:34:33.445Z,4.83
2023-05-17T06:35:51.734Z,4.89
2023-05-17T06:36:57.516Z,5.00
2023-05-17T06:37:59.090Z,5.06
2023-05-17T06:39:00.732Z,5.10
2023-05-17T06:40:10.248Z,5.16
2023-05-17T06:41:16.858Z,5.25
2023-05-17T06:42:18.468Z,5.33
2023-05-17T06:43:20.080Z,5.38
2023-05-17T06:44:21.745Z,5.45
2023-05-17T06:45:23.313Z,5.52
2023-05-17T06:46:25.011Z,5.58
2023-05-17T06:47:26.722Z,5.64
2023-05-17T06:48:28.644Z,5.72
2023-05-17T06:49:30.432Z,5.78
2023-05-17T06:50:32.308Z,5.86
2023-05-17T06:51:34.299Z,5.89
2023-05-17T06:52:35.982Z,5.95
2023-05-17T06:53:37.683Z,6.03
2023-05-17T06:54:42.426Z,6.10
2023-05-17T06:55:44.042Z,6.19
2023-05-17T06:56:45.652Z,6.27
2023-05-17T06:57:47.241Z,6.36
2023-05-17T06:58:48.858Z,6.43
2023-05-17T06:59:50.453Z,6.52
2023-05-17T07:00:52.062Z,6.59
2023-05-17T07:01:53.620Z,6.65
2023-05-17T07:02:55.429Z,6.72
2023-05-17T07:03:57.198Z,6.79
2023-05-17T07:04:58.857Z,6.86
2023-05-17T07:06:00.635Z,6.93
2023-05-17T07:07:02.214Z,7.00
2023-05-17T07:08:03.804Z,7.08
2023-05-17T07:09:05.447Z,7.14
2023-05-17T07:10:07.045Z,7.20
2023-05-17T07:11:08.619Z,7.25
2023-05-17T07:12:10.186Z,7.30
2023-05-17T07:13:11.759Z,7.36
2023-05-17T07:14:13.369Z,7.43
2023-05-17T07:15:17.541Z,7.47
2023-05-17T07:16:19.102Z,7.54
2023-05-17T07:17:20.710Z,7.60
2023-05-17T07:18:22.349Z,7.66
2023-05-17T07:19:24.138Z,7.73
2023-05-17T07:20:25.859Z,7.80
2023-05-17T07:21:27.671Z,7.89
2023-05-17T07:22:29.286Z,7.95
2023-05-17T07:23:30.865Z,8.02
2023-05-17T07:24:32.464Z,8.12
2023-05-17T07:25:34.035Z,8.21
2023-05-17T07:26:35.626Z,8.27
2023-05-17T07:27:37.214Z,8.33
2023-05-17T07:28:38.782Z,8.37
2023-05-17T07:29:40.404Z,8.41
2023-05-17T07:30:41.987Z,8.45
2023-05-17T07:31:43.557Z,8.50
2023-05-17T07:32:45.204Z,8.57
2023-05-17T07:33:46.860Z,8.62
2023-05-17T07:34:48.510Z,8.72
2023-05-17T07:35:50.169Z,8.79
2023-05-17T07:36:51.792Z,8.89
2023-05-17T07:37:53.356Z,8.96
2023-05-17T07:38:54.910Z,9.05
2023-05-17T07:39:56.609Z,9.14
2023-05-17T07:40:58.215Z,9.17
2023-05-17T07:41:59.773Z,9.26
2023-05-17T07:43:01.362Z,9.33
2023-05-17T07:44:02.919Z,9.39
2023-05-17T07:45:04.494Z,9.45
2023-05-17T07:46:06.110Z,9.52
2023-05-17T07:47:07.727Z,9.56
2023-05-17T07:48:09.373Z,9.62
2023-05-17T07:49:11.165Z,9.68
2023-05-17T07:50:13.420Z,9.73
2023-05-17T07:51:15.016Z,9.76
2023-05-17T07:52:16.573Z,9.79
2023-05-17T07:53:18.118Z,9.83
2023-05-17T07:54:19.681Z,9.87
2023-05-17T07:55:21.243Z,9.90
2023-05-17T07:56:22.847Z,9.93
2023-05-17T07:58:26.008Z,10.01
2023-05-17T07:59:27.597Z,10.05
2023-05-17T08:00:29.149Z,10.08
2023-05-17T08:01:30.776Z,10.11
2023-05-17T08:02:32.362Z,10.12
2023-05-17T08:03:33.956Z,10.13
2023-05-17T08:04:35.645Z,10.14
2023-05-17T08:05:37.285Z,10.16
2023-05-17T08:06:38.870Z,10.20
2023-05-17T08:07:40.443Z,10.21
2023-05-17T08:08:42.033Z,10.24
2023-05-17T08:09:43.640Z,10.26
2023-05-17T08:10:45.199Z,10.26
2023-05-17T08:11:46.784Z,10.26
2023-05-17T08:12:48.379Z,10.27
2023-05-17T08:13:51.906Z,10.29
2023-05-17T08:14:53.513Z,10.33
2023-05-17T08:16:01.751Z,10.32
2023-05-17T08:17:14.067Z,10.35
2023-05-17T08:18:15.761Z,10.35
2023-05-17T08:19:17.490Z,10.35
2023-05-17T08:20:19.185Z,10.35
2023-05-17T08:21:20.766Z,10.36
2023-05-17T08:22:22.340Z,10.36
2023-05-17T08:23:23.936Z,10.36
2023-05-17T08:24:25.518Z,10.38
2023-05-17T08:25:27.453Z,10.40
2023-05-17T08:26:31.896Z,10.41
2023-05-17T08:27:33.532Z,10.40
2023-05-17T08:28:35.123Z,10.42
2023-05-17T08:29:38.911Z,10.41
2023-05-17T08:30:41.321Z,10.42
2023-05-17T08:31:42.890Z,10.42
2023-05-17T08:32:44.573Z,10.43
2023-05-17T08:33:46.233Z,10.43
2023-05-17T08:34:47.800Z,10.44
2023-05-17T08:35:49.383Z,10.46
2023-05-17T08:36:50.960Z,10.47
2023-05-17T08:37:52.585Z,10.48
2023-05-17T08:38:54.150Z,10.51
2023-05-17T08:39:55.797Z,10.54
2023-05-17T08:40:57.407Z,10.55
2023-05-17T08:41:58.991Z,10.56
2023-05-17T08:43:00.559Z,10.58
2023-05-17T08:44:02.121Z,10.60
2023-05-17T08:45:03.723Z,10.61
2023-05-17T08:46:05.349Z,10.60
2023-05-17T08:47:06.936Z,10.58
2023-05-17T08:48:08.625Z,10.58
2023-05-17T08:49:10.315Z,10.59
2023-05-17T08:50:11.932Z,10.59
2023-05-17T08:51:13.498Z,10.60
2023-05-17T08:52:15.059Z,10.59
2023-05-17T08:53:16.669Z,10.59
2023-05-17T08:54:18.243Z,10.59
2023-05-17T08:55:19.871Z,10.59
2023-05-17T08:56:21.478Z,10.59
2023-05-17T08:57:23.043Z,10.60
2023-05-17T08:58:24.607Z,10.62
2023-05-17T08:59:26.174Z,10.63
2023-05-17T09:00:28.188Z,10.64
2023-05-17T09:01:32.277Z,10.66
2023-05-17T09:02:34.824Z,10.70
2023-05-17T09:03:36.553Z,10.71
2023-05-17T09:04:38.239Z,10.75
2023-05-17T09:05:39.940Z,10.78
2023-05-17T09:06:41.544Z,10.82
2023-05-17T09:07:43.135Z,10.85
2023-05-17T09:08:44.697Z,10.88
2023-05-17T09:09:46.273Z,10.90
2023-05-17T09:10:47.904Z,10.93
2023-05-17T09:11:49.472Z,10.93
2023-05-17T09:12:51.056Z,10.94
2023-05-17T09:13:52.684Z,10.95
2023-05-17T09:14:54.300Z,10.95
2023-05-17T09:15:55.934Z,10.96
2023-05-17T09:16:57.526Z,10.98
2023-05-17T09:17:59.253Z,10.97
2023-05-17T09:19:01.077Z,10.97
2023-05-17T09:20:02.940Z,10.98
2023-05-17T09:21:04.617Z,11.00
2023-05-17T09:22:06.292Z,11.02
2023-05-17T09:23:07.861Z,11.03
2023-05-17T09:24:09.434Z,11.06
2023-05-17T09:25:11.129Z,11.09
2023-05-17T09:26:12.734Z,11.10
2023-05-17T09:27:14.291Z,11.13
2023-05-17T09:28:15.856Z,11.14
2023-05-17T09:29:17.411Z,11.16
2023-05-17T09:30:19.001Z,11.16
2023-05-17T09:31:20.603Z,11.18
2023-05-17T09:32:22.249Z,11.17
2023-05-17T09:33:23.853Z,11.19
2023-05-17T09:34:25.411Z,11.18
2023-05-17T09:35:27.074Z,11.18
2023-05-17T09:36:28.850Z,11.18
2023-05-17T09:37:30.453Z,11.18
2023-05-17T09:38:32.011Z,11.20
2023-05-17T09:39:33.572Z,11.22
2023-05-17T09:40:35.137Z,11.24
2023-05-17T09:41:36.766Z,11.27
2023-05-17T09:42:38.333Z,11.30
2023-05-17T09:43:39.981Z,11.32
2023-05-17T09:44:41.554Z,11.35
2023-05-17T09:45:43.092Z,11.37
2023-05-17T09:46:44.716Z,11.40
2023-05-17T09:47:46.325Z,11.43
2023-05-17T09:48:48.100Z,11.43
2023-05-17T09:49:49.801Z,11.45
2023-05-17T09:50:51.774Z,11.46
2023-05-17T09:51:53.399Z,11.47
2023-05-17T09:52:54.989Z,11.48
2023-05-17T09:53:56.558Z,11.49
2023-05-17T09:54:58.122Z,11.50
2023-05-17T09:55:59.763Z,11.51
2023-05-17T09:57:01.330Z,11.54
2023-05-17T09:58:02.895Z,11.52
2023-05-17T09:59:04.462Z,11.53
2023-05-17T10:00:06.029Z,11.51
2023-05-17T10:01:07.633Z,11.50
2023-05-17T10:02:09.214Z,11.50
2023-05-17T10:03:10.862Z,11.48
2023-05-17T10:04:12.591Z,11.48
2023-05-17T10:05:14.285Z,11.49
2023-05-17T10:06:23.745Z,11.49
2023-05-17T10:07:37.568Z,11.54
2023-05-17T10:08:39.110Z,11.53
2023-05-17T10:09:40.659Z,11.54
2023-05-17T10:10:42.211Z,11.56
2023-05-17T10:11:43.807Z,11.57
2023-05-17T10:12:45.402Z,11.60
2023-05-17T10:13:46.983Z,11.61
2023-05-17T10:14:48.550Z,11.64
2023-05-17T10:15:50.201Z,11.65
2023-05-17T10:16:51.820Z,11.63
2023-05-17T10:17:53.511Z,11.64
2023-05-17T10:18:55.170Z,11.61
2023-05-17T10:19:57.028Z,11.61
2023-05-17T10:20:58.741Z,11.60
2023-05-17T10:22:11.572Z,11.57
2023-05-17T10:23:21.848Z,11.60
2023-05-17T10:24:23.436Z,11.57
2023-05-17T10:25:25.019Z,11.55
2023-05-17T10:26:26.659Z,11.56
2023-05-17T10:27:28.217Z,11.54
2023-05-17T10:28:29.803Z,11.55
2023-05-17T10:29:31.376Z,11.55
2023-05-17T10:30:32.930Z,11.58
2023-05-17T10:31:34.578Z,11.58
2023-05-17T10:32:36.170Z,11.59
2023-05-17T10:33:37.945Z,11.59
2023-05-17T10:34:39.567Z,11.57
2023-05-17T10:35:41.218Z,11.58
2023-05-17T10:36:42.828Z,11.59
2023-05-17T10:37:44.451Z,11.61
2023-05-17T10:38:46.014Z,11.61
2023-05-17T10:39:47.591Z,11.63
2023-05-17T10:40:49.217Z,11.66
2023-05-17T10:41:52.698Z,11.68
2023-05-17T10:42:54.527Z,11.72
2023-05-17T10:43:56.071Z,11.75
2023-05-17T10:44:57.662Z,11.79
2023-05-17T10:45:59.249Z,11.84
2023-05-17T10:47:00.824Z,11.88
2023-05-17T10:48:02.479Z,11.92
2023-05-17T10:49:04.177Z,11.96
2023-05-17T10:50:05.820Z,11.98
2023-05-17T10:51:07.434Z,12.02
2023-05-17T10:52:08.998Z,12.06
2023-05-17T10:53:10.562Z,12.09
2023-05-17T10:54:12.167Z,12.12
2023-05-17T10:55:13.722Z,12.14
2023-05-17T10:56:15.325Z,12.18
2023-05-17T10:57:16.900Z,12.21
2023-05-17T10:58:18.492Z,12.26
2023-05-17T10:59:20.046Z,12.27
2023-05-17T11:00:21.755Z,12.31
2023-05-17T11:01:23.661Z,12.33
2023-05-17T11:02:25.303Z,12.34
2023-05-17T11:03:26.893Z,12.35
2023-05-17T11:04:29.024Z,12.36
2023-05-17T11:05:30.842Z,12.36
2023-05-17T11:06:32.605Z,12.38
2023-05-17T11:07:34.330Z,12.39
2023-05-17T11:08:35.906Z,12.41
2023-05-17T11:09:37.466Z,12.42
2023-05-17T11:10:39.022Z,12.46
2023-05-17T11:11:40.627Z,12.47
2023-05-17T11:12:42.255Z,12.50
2023-05-17T11:13:43.854Z,12.53
2023-05-17T11:14:45.472Z,12.53
2023-05-17T11:15:47.146Z,12.57
2023-05-17T11:16:48.731Z,12.60
2023-05-17T11:17:50.359Z,12.64
2023-05-17T11:18:52.167Z,12.67
2023-05-17T11:19:53.963Z,12.70
2023-05-17T11:20:55.843Z,12.71
2023-05-17T11:21:57.521Z,12.72
2023-05-17T11:23:00.851Z,12.72
2023-05-17T11:24:02.463Z,12.71
2023-05-17T11:25:04.061Z,12.71
2023-05-17T11:26:15.256Z,12.68
2023-05-17T11:27:17.634Z,12.69
2023-05-17T11:28:19.255Z,12.66
2023-05-17T11:29:20.857Z,12.64
2023-05-17T11:30:22.518Z,12.62
2023-05-17T11:31:24.105Z,12.59
2023-05-17T11:32:25.702Z,12.59
2023-05-17T11:33:33.994Z,12.59
2023-05-17T11:34:35.840Z,12.60
2023-05-17T11:35:37.506Z,12.60
2023-05-17T11:36:39.096Z,12.60
2023-05-17T11:37:40.681Z,12.60
2023-05-17T11:38:42.245Z,12.59
2023-05-17T11:39:43.856Z,12.59
2023-05-17T11:40:45.427Z,12.58
2023-05-17T11:41:46.979Z,12.58
2023-05-17T11:42:48.584Z,12.55
2023-05-17T11:43:50.200Z,12.54
2023-05-17T11:44:51.766Z,12.49
2023-05-17T11:45:53.833Z,12.43
2023-05-17T11:46:55.543Z,12.37
2023-05-17T11:47:57.323Z,12.32
2023-05-17T11:48:58.939Z,12.25
2023-05-17T11:50:00.616Z,12.19
2023-05-17T11:51:02.621Z,12.13
2023-05-17T11:52:04.298Z,12.08
2023-05-17T11:53:05.962Z,12.07
2023-05-17T11:54:07.604Z,12.05
2023-05-17T11:55:10.289Z,12.02
2023-05-17T11:56:11.899Z,12.03
2023-05-17T11:57:13.470Z,12.02
2023-05-17T11:58:15.144Z,12.04
2023-05-17T11:59:16.715Z,12.06
2023-05-17T12:00:18.275Z,12.05
2023-05-17T12:01:22.808Z,12.05
2023-05-17T12:02:24.511Z,12.05
2023-05-17T12:03:26.139Z,12.03
2023-05-17T12:04:27.807Z,12.01
2023-05-17T12:05:29.399Z,12.02
2023-05-17T12:06:31.010Z,12.02
2023-05-17T12:07:32.613Z,12.03
2023-05-17T12:08:34.297Z,12.04
2023-05-17T12:09:35.918Z,12.05
2023-05-17T12:10:37.503Z,12.06
2023-05-17T12:11:39.083Z,12.06
2023-05-17T12:12:40.650Z,12.05
2023-05-17T12:13:42.280Z,12.03
2023-05-17T12:14:43.842Z,11.99
2023-05-17T12:15:45.421Z,11.98
2023-05-17T12:16:47.006Z,11.95
2023-05-17T12:17:51.407Z,11.93
2023-05-17T12:18:53.518Z,11.92
2023-05-17T12:19:55.468Z,11.90
2023-05-17T12:20:57.184Z,11.88
2023-05-17T12:21:58.772Z,11.87
2023-05-17T12:23:00.342Z,11.86
2023-05-17T12:24:01.963Z,11.86
2023-05-17T12:25:03.569Z,11.86
2023-05-17T12:26:05.164Z,11.85
2023-05-17T12:27:06.733Z,11.86
2023-05-17T12:28:08.298Z,11.85
2023-05-17T12:29:11.457Z,11.85
2023-05-17T12:30:13.655Z,11.84
2023-05-17T12:31:15.219Z,11.82
2023-05-17T12:32:16.783Z,11.86
2023-05-17T12:33:18.508Z,11.88
2023-05-17T12:34:20.262Z,11.92
2023-05-17T12:35:21.792Z,11.96
2023-05-17T12:36:23.361Z,12.00
2023-05-17T12:37:24.980Z,12.06
2023-05-17T12:38:26.534Z,12.12
2023-05-17T12:39:28.136Z,12.17
2023-05-17T12:40:30.048Z,12.22
2023-05-17T12:41:31.739Z,12.28
2023-05-17T12:42:33.336Z,12.34
2023-05-17T12:43:34.888Z,12.41
2023-05-17T12:44:36.506Z,12.46
2023-05-17T12:45:38.077Z,12.51
2023-05-17T12:46:39.715Z,12.56
2023-05-17T12:47:41.288Z,12.62
2023-05-17T12:48:42.900Z,12.68
2023-05-17T12:49:44.544Z,12.71
2023-05-17T12:50:46.130Z,12.77
2023-05-17T12:51:47.735Z,12.79
2023-05-17T12:52:49.309Z,12.84
2023-05-17T12:53:50.871Z,12.89
2023-05-17T12:54:52.469Z,12.94
2023-05-17T12:55:54.063Z,12.97
2023-05-17T12:56:55.691Z,13.00
2023-05-17T12:57:57.243Z,13.04
2023-05-17T12:58:58.807Z,13.08
2023-05-17T13:00:00.439Z,13.10
2023-05-17T13:01:02.008Z,13.12
2023-05-17T13:02:03.622Z,13.16
2023-05-17T13:03:05.299Z,13.18
2023-05-17T13:04:06.995Z,13.22
2023-05-17T13:05:08.712Z,13.25
2023-05-17T13:06:10.467Z,13.26
2023-05-17T13:07:12.025Z,13.28
2023-05-17T13:08:13.622Z,13.31
2023-05-17T13:09:15.201Z,13.33
2023-05-17T13:10:16.821Z,13.33
2023-05-17T13:11:18.385Z,13.35
2023-05-17T13:12:19.961Z,13.36
2023-05-17T13:13:21.532Z,13.35
2023-05-17T13:14:23.106Z,13.35
2023-05-17T13:15:24.737Z,13.35
2023-05-17T13:16:26.358Z,13.35
2023-05-17T13:17:28.000Z,13.34
2023-05-17T13:18:29.729Z,13.35
2023-05-17T13:19:31.536Z,13.37
2023-05-17T13:20:33.201Z,13.39
2023-05-17T13:21:34.772Z,13.39
2023-05-17T13:22:36.356Z,13.40
2023-05-17T13:23:37.929Z,13.41
2023-05-17T13:24:39.488Z,13.42
2023-05-17T13:25:41.171Z,13.42
2023-05-17T13:26:42.835Z,13.45
2023-05-17T13:27:44.394Z,13.46
2023-05-17T13:28:45.955Z,13.48
2023-05-17T13:29:47.537Z,13.51
2023-05-17T13:30:49.141Z,13.54
2023-05-17T13:31:50.752Z,13.56
2023-05-17T13:32:52.395Z,13.58
2023-05-17T13:33:54.120Z,13.60
2023-05-17T13:34:55.756Z,13.63
2023-05-17T13:35:57.374Z,13.64
2023-05-17T13:36:58.929Z,13.67
2023-05-17T13:38:00.517Z,13.68
2023-05-17T13:39:02.083Z,13.69
2023-05-17T13:40:03.651Z,13.70
2023-05-17T13:41:05.251Z,13.70
2023-05-17T13:42:06.887Z,13.69
2023-05-17T13:43:09.818Z,13.68
2023-05-17T13:44:11.558Z,13.68
2023-05-17T13:45:13.155Z,13.67
2023-05-17T13:46:14.724Z,13.68
2023-05-17T13:47:16.273Z,13.67
2023-05-17T13:48:17.881Z,13.67
2023-05-17T13:49:19.599Z,13.66
2023-05-17T13:50:21.241Z,13.65
2023-05-17T13:51:22.802Z,13.64
2023-05-17T13:52:24.425Z,13.64
2023-05-17T13:53:26.096Z,13.64
2023-05-17T13:54:27.662Z,13.64
2023-05-17T13:55:29.266Z,13.64
2023-05-17T13:56:30.900Z,13.63
2023-05-17T13:57:32.484Z,13.64
2023-05-17T13:58:34.078Z,13.63
2023-05-17T13:59:35.653Z,13.61
2023-05-17T14:00:37.278Z,13.60